sensor_id;sensor_type;location;lat;lon;timestamp;temperature;humidity
21197;DHT22;10756;51.014;3.786;2022-08-21T00:00:12;15.90;99.90
21197;DHT22;10756;51.014;3.786;2022-08-21T00:02:48;16.10;99.90
21197;DHT22;10756;51.014;3.786;2022-08-21T00:05:14;16.40;99.90
21197;DHT22;10756;51.014;3.786;2022-08-21T00:07:40;16.10;99.90
21197;DHT22;10756;51.014;3.786;2022-08-21T00:10:06;15.90;99.90
21197;DHT22;10756;51.014;3.786;2022-08-21T00:12:32;15.80;99.90
21197;DHT22;10756;51.014;3.786;2022-08-21T00:14:58;15.70;99.90
21197;DHT22;10756;51.014;3.786;2022-08-21T00:17:24;15.60;99.90
21197;DHT22;10756;51.014;3.786;2022-08-21T00:19:50;15.50;99.90
21197;DHT22;10756;51.014;3.786;2022-08-21T00:22:15;15.50;99.90
21197;DHT22;10756;51.014;3.786;2022-08-21T00:24:41;15.40;99.90
21197;DHT22;10756;51.014;3.786;2022-08-21T00:27:07;15.20;99.90
21197;DHT22;10756;51.014;3.786;2022-08-21T00:29:33;15.20;99.90
21197;DHT22;10756;51.014;3.786;2022-08-21T00:31:59;15.00;99.90
21197;DHT22;10756;51.014;3.786;2022-08-21T00:34:25;14.90;99.90
21197;DHT22;10756;51.014;3.786;2022-08-21T00:39:18;14.90;99.90
21197;DHT22;10756;51.014;3.786;2022-08-21T00:41:44;14.80;99.90
21197;DHT22;10756;51.014;3.786;2022-08-21T00:44:12;14.80;99.90
21197;DHT22;10756;51.014;3.786;2022-08-21T00:46:39;14.70;99.90
21197;DHT22;10756;51.014;3.786;2022-08-21T00:49:06;14.70;99.90
21197;DHT22;10756;51.014;3.786;2022-08-21T00:51:47;14.80;99.90
21197;DHT22;10756;51.014;3.786;2022-08-21T00:54:14;14.90;99.90
21197;DHT22;10756;51.014;3.786;2022-08-21T00:56:40;14.90;99.90
21197;DHT22;10756;51.014;3.786;2022-08-21T00:59:07;15.10;99.90
21197;DHT22;10756;51.014;3.786;2022-08-21T01:01:33;15.40;99.90
21197;DHT22;10756;51.014;3.786;2022-08-21T01:03:59;15.50;99.90
21197;DHT22;10756;51.014;3.786;2022-08-21T01:06:24;15.70;99.90
21197;DHT22;10756;51.014;3.786;2022-08-21T01:08:50;15.50;99.90
21197;DHT22;10756;51.014;3.786;2022-08-21T01:11:16;15.30;99.90
21197;DHT22;10756;51.014;3.786;2022-08-21T01:13:43;15.30;99.90
21197;DHT22;10756;51.014;3.786;2022-08-21T01:16:13;15.10;99.90
21197;DHT22;10756;51.014;3.786;2022-08-21T01:18:40;15.00;99.90
21197;DHT22;10756;51.014;3.786;2022-08-21T01:21:12;15.10;99.90
21197;DHT22;10756;51.014;3.786;2022-08-21T01:23:43;15.20;99.90
21197;DHT22;10756;51.014;3.786;2022-08-21T01:26:10;15.40;99.90
21197;DHT22;10756;51.014;3.786;2022-08-21T01:28:42;15.70;99.90
21197;DHT22;10756;51.014;3.786;2022-08-21T01:31:10;16.00;99.90
21197;DHT22;10756;51.014;3.786;2022-08-21T01:33:37;15.70;99.90
21197;DHT22;10756;51.014;3.786;2022-08-21T01:36:03;15.80;99.90
21197;DHT22;10756;51.014;3.786;2022-08-21T01:38:29;16.00;99.90
21197;DHT22;10756;51.014;3.786;2022-08-21T01:40:54;16.20;99.90
21197;DHT22;10756;51.014;3.786;2022-08-21T01:43:20;16.30;99.90
21197;DHT22;10756;51.014;3.786;2022-08-21T01:45:45;16.20;99.90
21197;DHT22;10756;51.014;3.786;2022-08-21T01:48:11;16.20;99.90
21197;DHT22;10756;51.014;3.786;2022-08-21T01:50:37;16.20;99.90
21197;DHT22;10756;51.014;3.786;2022-08-21T01:53:03;16.10;99.90
21197;DHT22;10756;51.014;3.786;2022-08-21T01:55:28;16.00;99.90
21197;DHT22;10756;51.014;3.786;2022-08-21T01:57:54;16.00;99.90
21197;DHT22;10756;51.014;3.786;2022-08-21T02:00:22;15.90;99.90
21197;DHT22;10756;51.014;3.786;2022-08-21T02:02:49;15.70;99.90
21197;DHT22;10756;51.014;3.786;2022-08-21T02:05:15;15.50;99.90
21197;DHT22;10756;51.014;3.786;2022-08-21T02:07:47;15.40;99.90
21197;DHT22;10756;51.014;3.786;2022-08-21T02:10:24;15.50;99.90
21197;DHT22;10756;51.014;3.786;2022-08-21T02:12:52;15.60;99.90
21197;DHT22;10756;51.014;3.786;2022-08-21T02:15:17;15.90;99.90
21197;DHT22;10756;51.014;3.786;2022-08-21T02:17:53;16.00;99.90
21197;DHT22;10756;51.014;3.786;2022-08-21T02:20:31;16.00;99.90
21197;DHT22;10756;51.014;3.786;2022-08-21T02:22:58;16.00;99.90
21197;DHT22;10756;51.014;3.786;2022-08-21T02:25:25;15.90;99.90
21197;DHT22;10756;51.014;3.786;2022-08-21T02:27:51;15.80;99.90
21197;DHT22;10756;51.014;3.786;2022-08-21T02:30:29;15.90;99.90
21197;DHT22;10756;51.014;3.786;2022-08-21T02:32:55;15.90;99.90
21197;DHT22;10756;51.014;3.786;2022-08-21T02:35:21;15.80;99.90
21197;DHT22;10756;51.014;3.786;2022-08-21T02:37:51;15.60;99.90
21197;DHT22;10756;51.014;3.786;2022-08-21T02:40:20;15.40;99.90
21197;DHT22;10756;51.014;3.786;2022-08-21T02:42:46;15.30;99.90
21197;DHT22;10756;51.014;3.786;2022-08-21T02:45:13;15.20;99.90
21197;DHT22;10756;51.014;3.786;2022-08-21T02:47:39;15.20;99.90
21197;DHT22;10756;51.014;3.786;2022-08-21T02:50:06;15.30;99.90
21197;DHT22;10756;51.014;3.786;2022-08-21T02:52:32;15.20;99.90
21197;DHT22;10756;51.014;3.786;2022-08-21T02:55:00;14.80;99.90
21197;DHT22;10756;51.014;3.786;2022-08-21T02:57:25;14.90;99.90
21197;DHT22;10756;51.014;3.786;2022-08-21T02:59:51;15.00;99.90
21197;DHT22;10756;51.014;3.786;2022-08-21T03:02:16;15.10;99.90
21197;DHT22;10756;51.014;3.786;2022-08-21T03:04:42;15.20;99.90
21197;DHT22;10756;51.014;3.786;2022-08-21T03:07:08;15.20;99.90
21197;DHT22;10756;51.014;3.786;2022-08-21T03:09:33;15.40;99.90
21197;DHT22;10756;51.014;3.786;2022-08-21T03:11:59;15.50;99.90
21197;DHT22;10756;51.014;3.786;2022-08-21T03:14:24;15.50;99.90
21197;DHT22;10756;51.014;3.786;2022-08-21T03:16:50;15.60;99.90
21197;DHT22;10756;51.014;3.786;2022-08-21T03:19:16;15.60;99.90
21197;DHT22;10756;51.014;3.786;2022-08-21T03:21:41;15.70;99.90
21197;DHT22;10756;51.014;3.786;2022-08-21T03:24:07;15.70;99.90
21197;DHT22;10756;51.014;3.786;2022-08-21T03:26:35;15.60;99.90
21197;DHT22;10756;51.014;3.786;2022-08-21T03:29:01;15.50;99.90
21197;DHT22;10756;51.014;3.786;2022-08-21T03:31:26;15.40;99.90
21197;DHT22;10756;51.014;3.786;2022-08-21T03:33:56;15.40;99.90
21197;DHT22;10756;51.014;3.786;2022-08-21T03:36:22;15.40;99.90
21197;DHT22;10756;51.014;3.786;2022-08-21T03:38:48;15.40;99.90
21197;DHT22;10756;51.014;3.786;2022-08-21T03:41:14;15.20;99.90
21197;DHT22;10756;51.014;3.786;2022-08-21T03:43:39;15.30;99.90
21197;DHT22;10756;51.014;3.786;2022-08-21T03:46:06;15.30;99.90
21197;DHT22;10756;51.014;3.786;2022-08-21T03:48:32;15.30;99.90
21197;DHT22;10756;51.014;3.786;2022-08-21T03:50:58;15.30;99.90
21197;DHT22;10756;51.014;3.786;2022-08-21T03:53:24;15.20;99.90
21197;DHT22;10756;51.014;3.786;2022-08-21T03:55:51;15.10;99.90
21197;DHT22;10756;51.014;3.786;2022-08-21T03:58:21;15.20;99.90
21197;DHT22;10756;51.014;3.786;2022-08-21T04:00:49;15.20;99.90
21197;DHT22;10756;51.014;3.786;2022-08-21T04:03:16;15.20;99.90
21197;DHT22;10756;51.014;3.786;2022-08-21T04:05:42;15.10;99.90
21197;DHT22;10756;51.014;3.786;2022-08-21T04:08:08;15.10;99.90
21197;DHT22;10756;51.014;3.786;2022-08-21T04:10:36;15.00;99.90
21197;DHT22;10756;51.014;3.786;2022-08-21T04:13:03;15.10;99.90
21197;DHT22;10756;51.014;3.786;2022-08-21T04:15:29;15.10;99.90
21197;DHT22;10756;51.014;3.786;2022-08-21T04:17:55;15.00;99.90
21197;DHT22;10756;51.014;3.786;2022-08-21T04:20:21;15.10;99.90
21197;DHT22;10756;51.014;3.786;2022-08-21T04:22:47;15.00;99.90
21197;DHT22;10756;51.014;3.786;2022-08-21T04:25:15;15.00;99.90
21197;DHT22;10756;51.014;3.786;2022-08-21T04:27:42;15.00;99.90
21197;DHT22;10756;51.014;3.786;2022-08-21T04:30:08;15.10;99.90
21197;DHT22;10756;51.014;3.786;2022-08-21T04:32:36;15.10;99.90
21197;DHT22;10756;51.014;3.786;2022-08-21T04:35:11;15.00;99.90
21197;DHT22;10756;51.014;3.786;2022-08-21T04:37:37;14.90;99.90
21197;DHT22;10756;51.014;3.786;2022-08-21T04:40:04;14.80;99.90
21197;DHT22;10756;51.014;3.786;2022-08-21T04:42:30;14.90;99.90
21197;DHT22;10756;51.014;3.786;2022-08-21T04:44:56;14.90;99.90
21197;DHT22;10756;51.014;3.786;2022-08-21T04:47:23;15.00;99.90
21197;DHT22;10756;51.014;3.786;2022-08-21T04:49:49;14.80;99.90
21197;DHT22;10756;51.014;3.786;2022-08-21T04:52:18;14.90;99.90
21197;DHT22;10756;51.014;3.786;2022-08-21T04:54:45;14.80;99.90
21197;DHT22;10756;51.014;3.786;2022-08-21T04:57:12;14.80;99.90
21197;DHT22;10756;51.014;3.786;2022-08-21T04:59:43;14.80;99.90
21197;DHT22;10756;51.014;3.786;2022-08-21T05:02:11;14.90;99.90
21197;DHT22;10756;51.014;3.786;2022-08-21T05:04:41;15.10;99.90
21197;DHT22;10756;51.014;3.786;2022-08-21T05:07:13;15.00;99.90
21197;DHT22;10756;51.014;3.786;2022-08-21T05:09:39;14.90;99.90
21197;DHT22;10756;51.014;3.786;2022-08-21T05:12:05;15.10;99.90
21197;DHT22;10756;51.014;3.786;2022-08-21T05:14:31;15.10;99.90
21197;DHT22;10756;51.014;3.786;2022-08-21T05:16:56;15.30;99.90
21197;DHT22;10756;51.014;3.786;2022-08-21T05:19:22;15.40;99.90
21197;DHT22;10756;51.014;3.786;2022-08-21T05:21:48;15.50;99.90
21197;DHT22;10756;51.014;3.786;2022-08-21T05:24:14;15.50;99.90
21197;DHT22;10756;51.014;3.786;2022-08-21T05:26:41;15.60;99.90
21197;DHT22;10756;51.014;3.786;2022-08-21T05:29:07;15.30;99.90
21197;DHT22;10756;51.014;3.786;2022-08-21T05:31:33;15.40;99.90
21197;DHT22;10756;51.014;3.786;2022-08-21T05:33:58;15.50;99.90
21197;DHT22;10756;51.014;3.786;2022-08-21T05:36:24;15.40;99.90
21197;DHT22;10756;51.014;3.786;2022-08-21T05:38:50;15.40;99.90
21197;DHT22;10756;51.014;3.786;2022-08-21T05:41:15;15.40;99.90
21197;DHT22;10756;51.014;3.786;2022-08-21T05:43:41;15.40;99.90
21197;DHT22;10756;51.014;3.786;2022-08-21T05:46:07;15.50;99.90
21197;DHT22;10756;51.014;3.786;2022-08-21T05:48:34;15.50;99.90
21197;DHT22;10756;51.014;3.786;2022-08-21T05:51:06;15.60;99.90
21197;DHT22;10756;51.014;3.786;2022-08-21T05:53:32;15.50;99.90
21197;DHT22;10756;51.014;3.786;2022-08-21T05:55:57;15.50;99.90
21197;DHT22;10756;51.014;3.786;2022-08-21T06:02:18;15.30;99.90
21197;DHT22;10756;51.014;3.786;2022-08-21T06:22:21;16.20;99.90
21197;DHT22;10756;51.014;3.786;2022-08-21T06:29:05;16.10;99.90
21197;DHT22;10756;51.014;3.786;2022-08-21T07:44:51;18.70;99.90
21197;DHT22;10756;51.014;3.786;2022-08-21T07:57:34;18.90;99.90
21197;DHT22;10756;51.014;3.786;2022-08-21T08:38:29;19.70;99.90
21197;DHT22;10756;51.014;3.786;2022-08-21T09:04:47;21.30;99.90
21197;DHT22;10756;51.014;3.786;2022-08-21T11:08:55;26.70;99.90
21197;DHT22;10756;51.014;3.786;2022-08-21T12:09:04;32.90;93.60
21197;DHT22;10756;51.014;3.786;2022-08-21T12:18:44;26.10;99.90
21197;DHT22;10756;51.014;3.786;2022-08-21T12:58:28;29.40;99.90
21197;DHT22;10756;51.014;3.786;2022-08-21T14:12:51;26.40;99.90
21197;DHT22;10756;51.014;3.786;2022-08-21T14:18:52;25.50;99.90
21197;DHT22;10756;51.014;3.786;2022-08-21T14:35:14;25.10;99.90
21197;DHT22;10756;51.014;3.786;2022-08-21T18:59:40;21.10;99.90
21197;DHT22;10756;51.014;3.786;2022-08-21T19:02:07;21.00;99.90
21197;DHT22;10756;51.014;3.786;2022-08-21T19:04:35;21.00;99.90
21197;DHT22;10756;51.014;3.786;2022-08-21T19:07:01;20.80;99.90
21197;DHT22;10756;51.014;3.786;2022-08-21T19:09:26;20.80;99.90
21197;DHT22;10756;51.014;3.786;2022-08-21T19:11:52;20.70;99.90
21197;DHT22;10756;51.014;3.786;2022-08-21T19:14:18;20.70;99.90
21197;DHT22;10756;51.014;3.786;2022-08-21T19:16:44;20.60;99.90
21197;DHT22;10756;51.014;3.786;2022-08-21T19:19:12;20.50;99.90
21197;DHT22;10756;51.014;3.786;2022-08-21T19:21:39;20.50;99.90
21197;DHT22;10756;51.014;3.786;2022-08-21T19:24:05;20.50;99.90
21197;DHT22;10756;51.014;3.786;2022-08-21T19:26:31;20.60;99.90
21197;DHT22;10756;51.014;3.786;2022-08-21T19:29:00;20.60;99.90
21197;DHT22;10756;51.014;3.786;2022-08-21T19:31:31;20.60;99.90
21197;DHT22;10756;51.014;3.786;2022-08-21T19:34:03;20.50;99.90
21197;DHT22;10756;51.014;3.786;2022-08-21T19:36:30;20.40;99.90
21197;DHT22;10756;51.014;3.786;2022-08-21T19:38:57;20.30;99.90
21197;DHT22;10756;51.014;3.786;2022-08-21T19:41:26;20.20;99.90
21197;DHT22;10756;51.014;3.786;2022-08-21T19:43:54;20.20;99.90
21197;DHT22;10756;51.014;3.786;2022-08-21T19:46:33;20.20;99.90
21197;DHT22;10756;51.014;3.786;2022-08-21T19:49:00;20.10;99.90
21197;DHT22;10756;51.014;3.786;2022-08-21T19:51:27;20.00;99.90
21197;DHT22;10756;51.014;3.786;2022-08-21T19:53:53;20.00;99.90
21197;DHT22;10756;51.014;3.786;2022-08-21T19:56:24;20.10;99.90
21197;DHT22;10756;51.014;3.786;2022-08-21T19:58:50;20.10;99.90
21197;DHT22;10756;51.014;3.786;2022-08-21T20:01:18;20.00;99.90
21197;DHT22;10756;51.014;3.786;2022-08-21T20:03:46;19.90;99.90
21197;DHT22;10756;51.014;3.786;2022-08-21T20:06:12;19.90;99.90
21197;DHT22;10756;51.014;3.786;2022-08-21T20:08:40;19.90;99.90
21197;DHT22;10756;51.014;3.786;2022-08-21T20:11:07;19.90;99.90
21197;DHT22;10756;51.014;3.786;2022-08-21T20:13:33;19.90;99.90
21197;DHT22;10756;51.014;3.786;2022-08-21T20:16:05;19.80;99.90
21197;DHT22;10756;51.014;3.786;2022-08-21T20:18:32;19.80;99.90
21197;DHT22;10756;51.014;3.786;2022-08-21T20:20:58;19.70;99.90
21197;DHT22;10756;51.014;3.786;2022-08-21T20:23:24;19.70;99.90
21197;DHT22;10756;51.014;3.786;2022-08-21T20:25:50;19.60;99.90
21197;DHT22;10756;51.014;3.786;2022-08-21T20:28:16;19.60;99.90
21197;DHT22;10756;51.014;3.786;2022-08-21T20:30:42;19.60;99.90
21197;DHT22;10756;51.014;3.786;2022-08-21T20:33:08;19.70;99.90
21197;DHT22;10756;51.014;3.786;2022-08-21T20:35:34;19.60;99.90
21197;DHT22;10756;51.014;3.786;2022-08-21T20:37:59;19.60;99.90
21197;DHT22;10756;51.014;3.786;2022-08-21T20:40:25;19.60;99.90
21197;DHT22;10756;51.014;3.786;2022-08-21T20:42:53;19.60;99.90
21197;DHT22;10756;51.014;3.786;2022-08-21T20:45:23;19.60;99.90
21197;DHT22;10756;51.014;3.786;2022-08-21T20:47:51;19.60;99.90
21197;DHT22;10756;51.014;3.786;2022-08-21T20:50:21;19.40;99.90
21197;DHT22;10756;51.014;3.786;2022-08-21T20:52:49;19.40;99.90
21197;DHT22;10756;51.014;3.786;2022-08-21T20:55:18;19.30;99.90
21197;DHT22;10756;51.014;3.786;2022-08-21T21:00:23;19.30;99.90
21197;DHT22;10756;51.014;3.786;2022-08-21T21:05:56;19.30;99.90
21197;DHT22;10756;51.014;3.786;2022-08-21T21:08:39;19.30;99.90
21197;DHT22;10756;51.014;3.786;2022-08-21T21:16:27;19.20;99.90
21197;DHT22;10756;51.014;3.786;2022-08-21T21:19:00;19.20;99.90
21197;DHT22;10756;51.014;3.786;2022-08-21T21:31:42;19.10;99.90
21197;DHT22;10756;51.014;3.786;2022-08-21T21:34:07;19.20;99.90
21197;DHT22;10756;51.014;3.786;2022-08-21T21:39:19;19.00;99.90
21197;DHT22;10756;51.014;3.786;2022-08-21T21:47:39;18.90;99.90
21197;DHT22;10756;51.014;3.786;2022-08-21T21:52:53;18.90;99.90
21197;DHT22;10756;51.014;3.786;2022-08-21T22:01:02;18.90;99.90
21197;DHT22;10756;51.014;3.786;2022-08-21T22:06:30;18.80;99.90
21197;DHT22;10756;51.014;3.786;2022-08-21T22:14:16;18.70;99.90
21197;DHT22;10756;51.014;3.786;2022-08-21T22:16:47;18.60;99.90
21197;DHT22;10756;51.014;3.786;2022-08-21T22:19:21;18.50;99.90
21197;DHT22;10756;51.014;3.786;2022-08-21T22:22:10;18.50;99.90
21197;DHT22;10756;51.014;3.786;2022-08-21T22:24:41;18.50;99.90
21197;DHT22;10756;51.014;3.786;2022-08-21T22:27:18;18.60;99.90
21197;DHT22;10756;51.014;3.786;2022-08-21T22:29:48;18.50;99.90
21197;DHT22;10756;51.014;3.786;2022-08-21T22:37:35;18.50;99.90
21197;DHT22;10756;51.014;3.786;2022-08-21T22:40:05;18.50;99.90
21197;DHT22;10756;51.014;3.786;2022-08-21T22:42:31;18.50;99.90
21197;DHT22;10756;51.014;3.786;2022-08-21T22:44:59;18.50;99.90
21197;DHT22;10756;51.014;3.786;2022-08-21T22:47:43;18.50;99.90
21197;DHT22;10756;51.014;3.786;2022-08-21T22:52:58;18.50;99.90
21197;DHT22;10756;51.014;3.786;2022-08-21T23:00:53;18.70;99.90
21197;DHT22;10756;51.014;3.786;2022-08-21T23:04:08;18.60;99.90
21197;DHT22;10756;51.014;3.786;2022-08-21T23:06:42;18.60;99.90
21197;DHT22;10756;51.014;3.786;2022-08-21T23:11:56;18.70;99.90
21197;DHT22;10756;51.014;3.786;2022-08-21T23:14:23;18.70;99.90
21197;DHT22;10756;51.014;3.786;2022-08-21T23:17:01;18.80;99.90
21197;DHT22;10756;51.014;3.786;2022-08-21T23:25:07;19.00;99.90
21197;DHT22;10756;51.014;3.786;2022-08-21T23:30:15;19.20;99.90
21197;DHT22;10756;51.014;3.786;2022-08-21T23:38:27;18.90;99.90
21197;DHT22;10756;51.014;3.786;2022-08-21T23:41:03;19.00;99.90
21197;DHT22;10756;51.014;3.786;2022-08-21T23:43:58;18.80;99.90
21197;DHT22;10756;51.014;3.786;2022-08-21T23:49:23;18.70;99.90
21197;DHT22;10756;51.014;3.786;2022-08-21T23:57:13;18.60;99.90
